Time;durP1;ratioP1;P1;durP2;ratioP2;P2;SDS_P1;SDS_P2;PMS_P1;PMS_P2;Temp;Humidity;BMP_temperature;BMP_pressure;BME280_temperature;BME280_humidity;BME280_pressure;Samples;Min_cycle;Max_cycle;Signal;HPM_P1;HPM_P2
2022/12/06 04:00:31;;;;;;;1.15;1.05;;;15.80;50.40;;;;;;6157008;22;45944;31
2022/12/06 04:02:56;;;;;;;1.08;0.98;;;15.80;50.40;;;;;;4921188;28;45306;-65
2022/12/06 04:05:22;;;;;;;1.55;1.10;;;15.80;50.40;;;;;;4913328;28;44948;-65
2022/12/06 04:07:47;;;;;;;1.63;1.20;;;15.70;50.40;;;;;;4933630;28;45073;-64
2022/12/06 04:10:13;;;;;;;1.08;0.98;;;15.70;50.40;;;;;;4929874;28;46152;-62
2022/12/06 04:15:37;;;;;;;1.73;1.23;;;15.80;50.40;;;;;;4932977;28;45631;-69
2022/12/06 04:18:13;;;;;;;2.10;1.30;;;15.70;50.30;;;;;;4950945;28;45088;-58
2022/12/06 04:23:44;;;;;;;1.10;0.90;;;15.70;50.50;;;;;;4959543;28;45297;-57
2022/12/06 04:26:13;;;;;;;1.35;1.10;;;15.70;50.40;;;;;;4918800;28;44964;-60
2022/12/06 04:39:35;;;;;;;1.58;1.10;;;15.60;50.40;;;;;;4953573;28;45443;-56
2022/12/06 04:44:45;;;;;;;1.88;1.00;;;15.70;50.50;;;;;;4954874;28;44889;-63
2022/12/06 04:47:10;;;;;;;1.02;0.90;;;15.60;50.50;;;;;;4954397;28;45393;-66
2022/12/06 04:49:36;;;;;;;1.60;1.17;;;15.60;50.50;;;;;;4952429;28;45211;-62
2022/12/06 04:52:02;;;;;;;1.10;1.00;;;15.60;50.50;;;;;;4952364;28;45573;-59
2022/12/06 04:54:29;;;;;;;1.58;1.33;;;15.60;50.50;;;;;;4958242;28;45428;-63
2022/12/06 04:56:56;;;;;;;1.17;1.00;;;15.60;50.50;;;;;;4955916;28;45511;-59
2022/12/06 04:59:21;;;;;;;1.25;0.80;;;15.60;50.60;;;;;;4950468;28;44881;-60
2022/12/06 05:01:47;;;;;;;4.05;0.93;;;15.50;50.60;;;;;;4952521;28;46572;-63
2022/12/06 05:04:12;;;;;;;1.00;0.90;;;15.50;50.60;;;;;;4960227;28;45176;-65
2022/12/06 05:06:38;;;;;;;1.50;1.00;;;15.50;50.60;;;;;;4953569;28;45046;-65
2022/12/06 05:09:03;;;;;;;1.52;1.27;;;15.60;50.60;;;;;;4952523;28;45609;-62
2022/12/06 05:11:29;;;;;;;1.38;0.90;;;15.60;50.60;;;;;;4954711;28;46278;-63
2022/12/06 05:13:54;;;;;;;1.00;0.90;;;15.60;50.60;;;;;;4957819;28;45539;-59
2022/12/06 05:16:20;;;;;;;1.38;1.10;;;15.50;50.60;;;;;;4949830;28;45314;-62
2022/12/06 05:18:45;;;;;;;1.25;1.08;;;15.50;50.60;;;;;;4952836;28;45312;-62
2022/12/06 05:21:19;;;;;;;1.38;1.27;;;15.50;50.60;;;;;;4950360;28;46164;-61
2022/12/06 05:23:45;;;;;;;1.20;1.10;;;15.50;50.70;;;;;;4948528;28;45447;-62
2022/12/06 05:26:12;;;;;;;1.50;1.17;;;15.50;50.60;;;;;;4954253;28;45524;-63
2022/12/06 05:28:38;;;;;;;1.95;1.17;;;15.50;50.60;;;;;;4952139;28;45318;-61
2022/12/06 05:31:03;;;;;;;1.60;1.00;;;15.50;50.60;;;;;;4954897;28;46155;-62
2022/12/06 05:33:29;;;;;;;1.58;1.10;;;15.50;50.60;;;;;;4947617;28;44817;-63
2022/12/06 05:35:54;;;;;;;1.77;1.30;;;15.50;50.60;;;;;;4952423;28;45445;-70
2022/12/06 05:38:20;;;;;;;1.10;1.00;;;15.40;50.50;;;;;;4949813;28;45019;-61
2022/12/06 05:40:46;;;;;;;1.65;1.17;;;15.50;50.60;;;;;;4951652;28;46271;-61
2022/12/06 05:43:12;;;;;;;1.20;1.10;;;15.50;50.60;;;;;;4951775;28;45493;-65
2022/12/06 05:45:37;;;;;;;1.27;1.05;;;15.40;50.60;;;;;;4957474;28;45237;-64
2022/12/06 05:48:03;;;;;;;1.10;0.95;;;15.40;50.60;;;;;;4954373;28;45645;-66
2022/12/06 05:50:29;;;;;;;1.55;1.10;;;15.40;50.60;;;;;;4949748;28;46873;-62
2022/12/06 05:52:55;;;;;;;1.55;1.10;;;15.40;50.70;;;;;;4951773;28;45204;-66
2022/12/06 05:55:21;;;;;;;0.88;0.77;;;15.40;50.60;;;;;;4952369;28;45732;-58
2022/12/06 05:57:46;;;;;;;1.20;0.98;;;15.40;50.60;;;;;;4960973;28;45380;-58
2022/12/06 06:00:12;;;;;;;1.08;1.00;;;15.40;50.70;;;;;;4956874;28;45962;-66
2022/12/06 06:02:38;;;;;;;0.93;0.85;;;15.40;50.70;;;;;;4957137;28;45062;-64
2022/12/06 06:05:04;;;;;;;1.48;1.10;;;15.40;50.70;;;;;;4959972;28;44737;-59
2022/12/06 06:07:29;;;;;;;1.10;1.00;;;15.40;50.70;;;;;;4951568;28;45329;-62
2022/12/06 06:09:55;;;;;;;1.27;1.00;;;15.40;50.70;;;;;;4955690;28;47155;-57
2022/12/06 06:12:20;;;;;;;1.48;1.10;;;15.40;50.70;;;;;;4961619;28;45050;-61
2022/12/06 06:14:46;;;;;;;1.05;0.85;;;15.30;50.70;;;;;;4964220;28;45535;-62
2022/12/06 06:17:12;;;;;;;1.30;1.05;;;15.30;50.70;;;;;;4956278;28;45244;-61
2022/12/06 06:19:38;;;;;;;1.05;0.95;;;15.30;50.70;;;;;;4947630;28;45975;-67
2022/12/06 06:22:03;;;;;;;1.08;0.90;;;15.30;50.70;;;;;;4960680;28;45254;-67
2022/12/06 06:24:35;;;;;;;1.15;1.05;;;15.30;50.80;;;;;;4960801;28;46120;-61
2022/12/06 06:27:01;;;;;;;1.10;0.90;;;15.30;50.70;;;;;;4934547;28;45014;-61
2022/12/06 06:29:27;;;;;;;2.22;1.10;;;15.30;50.70;;;;;;4956689;28;45966;-61
2022/12/06 06:31:52;;;;;;;1.60;1.00;;;15.30;50.70;;;;;;4955570;28;47909;-62
2022/12/06 06:34:18;;;;;;;2.13;1.20;;;15.30;50.80;;;;;;4963297;28;45286;-57
2022/12/06 06:36:43;;;;;;;1.35;1.10;;;15.30;50.70;;;;;;4955578;28;44846;-69
2022/12/06 06:39:09;;;;;;;1.20;1.10;;;15.30;50.80;;;;;;4956972;28;46004;-58
2022/12/06 06:41:34;;;;;;;1.20;1.10;;;15.30;50.80;;;;;;4956173;28;45595;-60
2022/12/06 06:44:00;;;;;;;1.15;1.05;;;15.20;50.70;;;;;;4958744;28;45510;-64
2022/12/06 06:46:25;;;;;;;1.58;1.20;;;15.30;50.80;;;;;;4956042;28;45485;-63
2022/12/06 06:48:51;;;;;;;0.85;0.80;;;15.30;50.80;;;;;;4955668;28;45203;-61
2022/12/06 06:51:17;;;;;;;1.38;0.90;;;15.20;50.70;;;;;;4958224;28;45540;-64
2022/12/06 06:53:42;;;;;;;1.17;0.90;;;15.20;50.70;;;;;;4961044;28;44866;-62
2022/12/06 06:56:08;;;;;;;1.13;0.98;;;15.20;51.10;;;;;;4955584;28;44948;-59
2022/12/06 06:58:33;;;;;;;1.05;0.90;;;15.20;50.70;;;;;;4949469;28;45957;-61
2022/12/06 07:01:00;;;;;;;1.60;1.10;;;15.20;50.70;;;;;;4936763;28;45463;-66
2022/12/06 07:03:25;;;;;;;1.23;1.10;;;15.20;50.70;;;;;;4929528;28;45157;-63
2022/12/06 07:05:52;;;;;;;1.13;1.02;;;15.20;50.70;;;;;;4953556;28;45396;-63
2022/12/06 07:08:18;;;;;;;1.33;1.13;;;15.20;50.80;;;;;;4949533;28;46034;-62
2022/12/06 07:10:47;;;;;;;1.23;0.88;;;15.20;50.80;;;;;;4933530;28;45443;-61
2022/12/06 07:13:14;;;;;;;1.15;1.00;;;15.20;50.80;;;;;;4945063;28;45673;-64
2022/12/06 07:15:40;;;;;;;0.98;0.88;;;15.10;50.80;;;;;;4955073;28;45182;-60
2022/12/06 07:18:05;;;;;;;1.10;1.00;;;15.20;50.80;;;;;;4952044;28;45547;-61
2022/12/06 07:20:31;;;;;;;1.10;0.98;;;15.10;50.80;;;;;;4952977;28;45553;-59
2022/12/06 07:22:56;;;;;;;0.80;0.80;;;15.20;50.70;;;;;;4957671;28;45515;-62
2022/12/06 07:25:22;;;;;;;1.08;0.98;;;15.20;50.70;;;;;;4958488;28;45644;-58
2022/12/06 07:27:47;;;;;;;2.08;0.93;;;15.30;50.60;;;;;;4959825;28;47356;-61
2022/12/06 07:30:13;;;;;;;1.33;1.00;;;15.40;50.50;;;;;;4954834;28;45006;-58
2022/12/06 07:32:39;;;;;;;1.50;1.00;;;15.60;50.40;;;;;;4948992;28;45247;-60
2022/12/06 07:35:05;;;;;;;1.25;1.00;;;15.70;50.10;;;;;;4955230;28;45401;-61
2022/12/06 07:37:30;;;;;;;1.38;1.00;;;15.90;49.90;;;;;;4960038;28;45932;-63
2022/12/06 07:39:56;;;;;;;1.00;0.90;;;16.10;49.70;;;;;;4955601;28;45417;-59
2022/12/06 07:45:07;;;;;;;1.17;1.08;;;16.40;49.30;;;;;;4957235;28;44868;-57
2022/12/06 07:47:37;;;;;;;0.95;0.80;;;16.60;49.10;;;;;;4952238;28;46045;-54
2022/12/06 07:50:04;;;;;;;1.25;0.75;;;16.70;48.90;;;;;;4951347;28;45315;-56
2022/12/06 07:52:33;;;;;;;0.68;0.68;;;16.80;48.70;;;;;;4957153;28;45578;-56
2022/12/06 07:54:59;;;;;;;1.15;0.98;;;17.00;48.60;;;;;;4961154;28;45219;-58
2022/12/06 07:57:25;;;;;;;5.50;0.80;;;17.10;48.50;;;;;;4955912;28;45485;-59
2022/12/06 07:59:50;;;;;;;1.00;0.70;;;17.20;49.00;;;;;;4959801;28;45405;-64
2022/12/06 08:02:17;;;;;;;0.77;0.77;;;17.20;48.50;;;;;;4951797;28;45130;-61
2022/12/06 08:04:43;;;;;;;0.95;0.85;;;17.20;48.50;;;;;;4936074;28;45729;-61
2022/12/06 08:07:08;;;;;;;0.75;0.70;;;17.30;48.60;;;;;;4953476;28;46150;-60
2022/12/06 08:09:34;;;;;;;1.35;0.82;;;17.40;48.50;;;;;;4962557;28;45291;-61
2022/12/06 08:11:59;;;;;;;0.85;0.80;;;17.50;48.40;;;;;;4955368;28;45562;-61
2022/12/06 08:14:26;;;;;;;1.00;0.80;;;17.60;48.20;;;;;;4954073;28;45207;-63
2022/12/06 08:16:52;;;;;;;0.98;0.90;;;17.70;48.10;;;;;;4955248;28;46063;-60
2022/12/06 08:19:17;;;;;;;1.08;0.80;;;17.90;47.90;;;;;;4951332;28;45005;-61
2022/12/06 08:21:43;;;;;;;0.80;0.80;;;18.00;47.80;;;;;;4961037;28;45243;-60
2022/12/06 08:24:08;;;;;;;1.35;0.80;;;18.10;47.70;;;;;;4965814;28;46057;-60
2022/12/06 08:26:35;;;;;;;0.70;0.70;;;18.20;47.50;;;;;;4953054;28;45968;-62
2022/12/06 08:29:01;;;;;;;0.70;0.70;;;18.40;47.40;;;;;;4953601;28;45172;-60
2022/12/06 08:31:26;;;;;;;0.70;0.60;;;18.50;47.30;;;;;;4951308;28;44678;-60
2022/12/06 08:33:52;;;;;;;0.60;0.60;;;18.60;47.20;;;;;;4955361;28;45532;-58
2022/12/06 08:36:19;;;;;;;0.80;0.80;;;18.70;47.00;;;;;;4961777;28;45584;-58
2022/12/06 08:38:45;;;;;;;1.08;0.63;;;18.80;46.90;;;;;;4940098;28;45505;-57
2022/12/06 08:43:55;;;;;;;0.88;0.85;;;18.80;46.80;;;;;;4953265;28;44984;-59
2022/12/06 08:46:20;;;;;;;0.50;0.50;;;18.80;46.90;;;;;;4953313;28;46994;-58
2022/12/06 08:48:46;;;;;;;1.17;0.80;;;18.90;47.00;;;;;;4954907;28;45436;-61
2022/12/06 08:51:11;;;;;;;1.55;0.95;;;18.90;46.90;;;;;;4950310;28;45596;-58
2022/12/06 08:53:37;;;;;;;0.82;0.73;;;19.00;46.90;;;;;;4956389;28;44987;-65
2022/12/06 08:56:03;;;;;;;1.02;0.70;;;19.10;46.70;;;;;;4955460;28;46378;-64
2022/12/06 08:58:28;;;;;;;0.82;0.80;;;19.30;46.60;;;;;;4954194;28;44946;-59
2022/12/06 09:00:54;;;;;;;0.85;0.70;;;19.40;46.50;;;;;;4954945;28;44984;-57
2022/12/06 09:03:20;;;;;;;0.73;0.50;;;19.50;46.30;;;;;;4947168;28;45120;-58
2022/12/06 09:05:45;;;;;;;0.75;0.75;;;19.60;46.20;;;;;;4950237;28;46224;-60
2022/12/06 09:08:11;;;;;;;1.23;0.85;;;19.70;46.20;;;;;;4948589;28;45013;-60
2022/12/06 09:10:36;;;;;;;0.85;0.70;;;19.80;46.00;;;;;;4951569;28;45541;-61
2022/12/06 09:13:02;;;;;;;0.90;0.80;;;19.90;45.90;;;;;;4960306;28;45436;-61
2022/12/06 09:15:27;;;;;;;0.57;0.57;;;20.00;45.80;;;;;;4952869;28;45870;-61
2022/12/06 09:17:53;;;;;;;0.82;0.68;;;20.10;45.60;;;;;;4944188;28;44699;-57
2022/12/06 09:20:18;;;;;;;;;;;20.20;45.60;;;;;;4957366;28;45634;-66
2022/12/06 09:22:44;;;;;;;;;;;20.30;45.00;;;;;;4959889;28;45302;-59
2022/12/06 09:25:10;;;;;;;;;;;20.30;44.90;;;;;;4951601;28;45838;-60
2022/12/06 09:27:35;;;;;;;;;;;20.40;44.90;;;;;;4956855;28;44872;-60
2022/12/06 09:30:01;;;;;;;;;;;20.50;44.80;;;;;;4956090;28;44956;-59
2022/12/06 09:32:26;;;;;;;;;;;20.50;44.70;;;;;;4953396;28;45354;-56
2022/12/06 09:34:52;;;;;;;;;;;20.40;44.60;;;;;;4968666;28;45832;-60
2022/12/06 09:37:17;;;;;;;;;;;20.40;44.90;;;;;;4960400;28;45502;-61
2022/12/06 09:39:44;;;;;;;;;;;20.40;45.00;;;;;;4959579;28;45263;-63
2022/12/06 09:42:12;;;;;;;;;;;20.40;45.00;;;;;;4938781;28;45326;-62
2022/12/06 09:44:47;;;;;;;;;;;20.50;44.90;;;;;;4940106;28;46152;-61
2022/12/06 09:47:31;;;;;;;;;;;20.60;44.80;;;;;;4958297;28;46791;-62
2022/12/06 09:50:12;;;;;;;;;;;20.70;44.60;;;;;;4962344;28;45067;-65
2022/12/06 09:52:37;;;;;;;;;;;20.80;44.50;;;;;;4959070;28;45145;-63
2022/12/06 09:55:12;;;;;;;;;;;20.90;44.50;;;;;;4962279;28;46003;-59
2022/12/06 09:57:46;;;;;;;;;;;21.00;44.30;;;;;;4961572;28;44690;-58
2022/12/06 10:00:13;;;;;;;;;;;21.10;44.20;;;;;;4955165;28;45471;-59
2022/12/06 10:02:57;;;;;;;;;;;21.20;44.10;;;;;;4937711;28;45274;-61
2022/12/06 10:05:25;;;;;;;;;;;21.30;44.10;;;;;;4966719;28;46041;-62
2022/12/06 10:07:57;;;;;;;;;;;21.40;43.90;;;;;;4961367;28;45457;-60
2022/12/06 10:10:34;;;;;;;;;;;21.50;43.90;;;;;;4955673;28;45364;-64
2022/12/06 10:13:20;;;;;;;;;;;21.50;43.80;;;;;;4954293;28;45322;-61
2022/12/06 10:15:51;;;;;;;;;;;21.60;43.60;;;;;;4956347;28;45975;-62
2022/12/06 10:18:25;;;;;;;;;;;21.70;43.60;;;;;;4951990;28;45169;-60
2022/12/06 10:21:29;;;;;;;;;;;21.80;43.50;;;;;;4952174;28;45023;-61
2022/12/06 10:24:10;;;;;;;;;;;21.80;43.40;;;;;;4917572;28;45090;-58
2022/12/06 10:26:35;;;;;;;;;;;21.90;43.30;;;;;;4913438;28;46203;-62
2022/12/06 10:29:10;;;;;;;;;;;21.90;43.30;;;;;;4940575;28;45080;-59
2022/12/06 10:31:41;;;;;;;;;;;21.90;43.20;;;;;;4954628;28;45071;-58
2022/12/06 10:34:10;;;;;;;;;;;21.80;43.40;;;;;;4945064;28;45190;-61
2022/12/06 10:36:39;;;;;;;;;;;21.80;43.60;;;;;;4935030;28;46134;-59
2022/12/06 10:39:13;;;;;;;;;;;21.70;43.70;;;;;;4938105;28;45069;-58
2022/12/06 10:41:43;;;;;;;;;;;21.80;43.70;;;;;;4937103;28;45564;-66
2022/12/06 10:44:24;;;;;;;;;;;21.90;43.60;;;;;;4948534;28;45601;-62
2022/12/06 10:47:05;;;;;;;;;;;22.00;43.60;;;;;;4935860;28;46135;-59
2022/12/06 10:49:40;;;;;;;;;;;22.10;43.50;;;;;;4956523;28;45513;-60
2022/12/06 10:52:11;;;;;;;;;;;22.10;43.30;;;;;;4936950;28;45332;-61
2022/12/06 10:54:49;;;;;;;;;;;22.20;43.30;;;;;;4965209;28;45128;-57
2022/12/06 10:57:20;;;;;;;;;;;22.20;43.30;;;;;;4939046;28;46210;-62
2022/12/06 10:59:50;;;;;;;;;;;22.30;43.20;;;;;;4960811;28;45013;-60
2022/12/06 11:02:20;;;;;;;;;;;22.30;43.20;;;;;;4935493;28;45088;-64
2022/12/06 11:04:46;;;;;;;;;;;22.40;43.80;;;;;;4951726;28;45285;-63
2022/12/06 11:07:16;;;;;;;;;;;22.50;43.20;;;;;;4937425;28;45587;-60
2022/12/06 11:09:43;;;;;;;;;;;22.50;43.70;;;;;;4962665;28;44927;-60
2022/12/06 11:12:38;;;;;;;;;;;22.60;43.10;;;;;;4931508;28;45506;-57
2022/12/06 11:15:12;;;;;;;;;;;22.60;43.00;;;;;;4938526;28;45509;-63
2022/12/06 11:17:38;;;;;;;;;;;22.70;42.90;;;;;;4951828;28;46254;-61
2022/12/06 11:20:23;;;;;;;;;;;22.70;43.00;;;;;;4931505;28;44685;-65
2022/12/06 11:23:09;;;;;;;;;;;22.70;42.80;;;;;;4957352;28;45338;-66
2022/12/06 11:25:53;;;;;;;;;;;22.70;42.80;;;;;;4939761;28;45410;-62
2022/12/06 11:28:21;;;;;;;;;;;22.80;42.90;;;;;;4964114;28;46246;-62
2022/12/06 11:30:50;;;;;;;;;;;22.80;43.50;;;;;;4959483;28;45179;-57
2022/12/06 11:33:16;;;;;;;;;;;22.80;42.80;;;;;;4959412;28;45152;-64
2022/12/06 11:35:41;;;;;;;;;;;22.80;42.80;;;;;;4939496;28;45233;-65
2022/12/06 11:38:07;;;;;;;;;;;22.90;42.60;;;;;;4944815;28;45869;-61
2022/12/06 11:40:36;;;;;;;;;;;22.90;42.60;;;;;;4958828;28;45521;-61
2022/12/06 11:43:03;;;;;;;;;;;22.90;42.50;;;;;;4940333;28;45530;-59
2022/12/06 11:45:32;;;;;;;;;;;22.90;42.50;;;;;;4955553;28;45817;-61
2022/12/06 11:47:58;;;;;;;;;;;22.80;42.40;;;;;;4952775;28;47294;-57
2022/12/06 11:50:24;;;;;;;;;;;22.70;42.50;;;;;;4940690;28;45557;-62
2022/12/06 11:52:57;;;;;;;;;;;22.70;42.70;;;;;;4959189;28;44697;-61
2022/12/06 11:55:26;;;;;;;;;;;22.70;42.70;;;;;;4955023;28;45001;-61
2022/12/06 11:57:54;;;;;;;;;;;22.80;43.30;;;;;;4944187;28;46226;-60
2022/12/06 12:00:23;;;;;;;;;;;22.90;42.60;;;;;;4959318;28;45072;-62
2022/12/06 12:02:49;;;;;;;;;;;23.00;42.50;;;;;;4945408;28;45355;-61
2022/12/06 12:05:15;;;;;;;;;;;23.10;42.40;;;;;;4961896;28;44802;-62
2022/12/06 12:07:41;;;;;;;;;;;23.20;43.00;;;;;;4957368;28;46596;-61
2022/12/06 12:10:25;;;;;;;;;;;23.20;42.20;;;;;;4956023;28;45130;-60
2022/12/06 12:15:34;;;;;;;;;;;23.40;42.10;;;;;;4940404;28;44906;-62
2022/12/06 12:18:00;;;;;;;;;;;23.50;42.00;;;;;;4941802;28;46994;-62
2022/12/06 12:20:28;;;;;;;;;;;23.50;41.90;;;;;;4943457;28;45254;-61
2022/12/06 12:22:56;;;;;;;;;;;23.50;41.80;;;;;;4960019;28;45181;-61
2022/12/06 12:25:29;;;;;;;;;;;23.60;41.80;;;;;;4965867;28;45537;-59
2022/12/06 12:27:55;;;;;;;;;;;23.70;41.80;;;;;;4962359;28;45245;-61
2022/12/06 12:30:28;;;;;;;;;;;23.70;41.70;;;;;;4923055;28;45369;-61
2022/12/06 12:33:06;;;;;;;;;;;23.80;41.70;;;;;;4939611;28;45424;-61
2022/12/06 12:35:32;;;;;;;;;;;23.80;41.60;;;;;;4958342;28;44741;-61
2022/12/06 12:37:59;;;;;;;;;;;23.90;41.50;;;;;;4953609;28;44871;-61
2022/12/06 12:40:35;;;;;;;;;;;24.00;41.50;;;;;;4952438;28;45255;-61
2022/12/06 12:43:04;;;;;;;;;;;24.00;41.40;;;;;;4956220;28;45198;-61
2022/12/06 12:45:29;;;;;;;;;;;24.10;41.30;;;;;;4959610;28;45240;-60
2022/12/06 12:47:58;;;;;;;;;;;24.10;41.30;;;;;;4953164;28;46168;-59
2022/12/06 12:50:24;;;;;;;;;;;24.10;41.20;;;;;;4939245;28;45520;-61
2022/12/06 12:52:49;;;;;;;;;;;24.20;41.20;;;;;;4961023;28;45370;-60
2022/12/06 12:55:18;;;;;;;;;;;24.10;41.00;;;;;;4930040;28;45126;-62
2022/12/06 12:57:44;;;;;;;;;;;24.20;41.10;;;;;;4953588;28;46176;-60
2022/12/06 13:00:30;;;;;;;;;;;24.20;40.90;;;;;;4923556;28;44701;-62
2022/12/06 13:02:57;;;;;;;;;;;24.10;41.10;;;;;;4942587;28;45047;-59
2022/12/06 13:05:27;;;;;;;;;;;24.00;41.30;;;;;;4941444;28;45199;-61
2022/12/06 13:07:54;;;;;;;;;;;23.90;41.50;;;;;;4935067;28;45930;-61
2022/12/06 13:10:21;;;;;;;;;;;23.90;41.60;;;;;;4952628;28;44851;-61
2022/12/06 13:12:52;;;;;;;;;;;24.00;41.60;;;;;;4944971;28;45027;-62
2022/12/06 13:15:18;;;;;;;;;;;24.10;41.50;;;;;;4959855;28;45766;-62
2022/12/06 13:17:46;;;;;;;;;;;24.10;41.40;;;;;;4935678;28;47137;-60
2022/12/06 13:20:25;;;;;;;;;;;24.20;41.30;;;;;;4955929;28;45237;-61
2022/12/06 13:22:52;;;;;;;;;;;24.20;41.30;;;;;;4956532;28;44959;-61
2022/12/06 13:25:17;;;;;;;;;;;24.30;41.20;;;;;;4941039;28;45415;-60
2022/12/06 13:27:44;;;;;;;;;;;24.40;41.10;;;;;;4962391;28;45225;-61
2022/12/06 13:30:19;;;;;;;;;;;24.40;41.10;;;;;;4937056;28;45438;-64
2022/12/06 13:32:50;;;;;;;;;;;24.40;41.00;;;;;;4939155;28;45537;-62
2022/12/06 13:35:26;;;;;;;;;;;24.50;41.00;;;;;;4941836;28;45670;-61
2022/12/06 13:37:59;;;;;;;;;;;24.50;41.00;;;;;;4940335;28;45318;-62
2022/12/06 13:40:27;;;;;;;;;;;24.50;41.10;;;;;;4941851;28;44697;-59
2022/12/06 13:42:53;;;;;;;;;;;24.50;40.90;;;;;;4959858;28;45488;-60
2022/12/06 13:45:38;;;;;;;;;;;24.50;40.90;;;;;;4960376;28;45236;-60
2022/12/06 13:48:20;;;;;;;;;;;24.50;40.90;;;;;;4934905;28;45993;-56
2022/12/06 13:50:46;;;;;;;;;;;24.50;40.80;;;;;;4935095;28;45185;-59
2022/12/06 13:53:12;;;;;;;;;;;24.50;40.90;;;;;;4943783;28;46022;-61
2022/12/06 13:55:37;;;;;;;;;;;24.50;41.00;;;;;;4946393;28;45348;-60
2022/12/06 13:58:02;;;;;;;;;;;24.50;40.90;;;;;;4955924;28;45964;-59
2022/12/06 14:00:32;;;;;;;;;;;24.40;41.00;;;;;;4957648;28;45457;-60
2022/12/06 14:02:58;;;;;;;;;;;24.40;41.10;;;;;;4956116;28;45484;-61
2022/12/06 14:05:42;;;;;;;;;;;24.40;41.10;;;;;;4961361;28;45453;-60
2022/12/06 14:08:10;;;;;;;;;;;24.40;41.20;;;;;;4956176;28;45082;-60
2022/12/06 14:10:35;;;;;;;;;;;24.40;41.30;;;;;;4958443;28;45030;-62
2022/12/06 14:13:01;;;;;;;;;;;24.40;41.20;;;;;;4951132;28;45580;-62
2022/12/06 14:15:27;;;;;;;0.40;0.40;;;24.50;41.20;;;;;;4962178;28;45274;-62
2022/12/06 14:17:52;;;;;;;0.47;0.40;;;24.50;41.60;;;;;;4956137;28;46027;-61
2022/12/06 14:20:26;;;;;;;0.63;0.50;;;24.60;41.60;;;;;;4940520;28;45724;-61
2022/12/06 14:22:52;;;;;;;0.50;0.50;;;24.60;41.40;;;;;;4944232;28;45123;-62
2022/12/06 14:25:21;;;;;;;0.88;0.50;;;24.70;41.50;;;;;;4965702;28;44796;-62
2022/12/06 14:27:49;;;;;;;0.50;0.45;;;24.70;41.40;;;;;;4961253;28;45071;-60
2022/12/06 14:30:16;;;;;;;0.40;0.40;;;24.80;41.40;;;;;;4942717;28;45447;-62
2022/12/06 14:32:46;;;;;;;0.60;0.50;;;24.80;41.40;;;;;;4939975;28;45258;-62
2022/12/06 14:35:13;;;;;;;0.82;0.40;;;24.80;41.20;;;;;;4942764;28;45356;-61
2022/12/06 14:37:38;;;;;;;0.77;0.50;;;24.90;41.30;;;;;;4957712;28;45685;-62
2022/12/06 14:43:26;;;;;;;0.57;0.50;;;24.80;40.70;;;;;;4962138;28;44686;-62
2022/12/06 14:45:54;;;;;;;1.10;0.55;;;24.70;41.30;;;;;;4946046;28;45423;-60
2022/12/06 14:48:20;;;;;;;0.55;0.40;;;24.70;41.50;;;;;;4939303;28;46092;-61
2022/12/06 14:50:58;;;;;;;0.90;0.60;;;24.60;41.60;;;;;;4921665;28;45275;-61
2022/12/06 14:53:34;;;;;;;1.50;0.40;;;24.60;41.40;;;;;;4958958;28;45315;-59
2022/12/06 14:56:03;;;;;;;0.80;0.55;;;24.70;41.50;;;;;;4941165;28;45377;-61
2022/12/06 14:58:33;;;;;;;0.98;0.43;;;24.80;41.50;;;;;;4946915;28;46982;-61
2022/12/06 15:01:00;;;;;;;0.65;0.40;;;24.80;41.50;;;;;;4924892;28;45202;-62
2022/12/06 15:03:29;;;;;;;1.02;0.35;;;24.80;41.40;;;;;;4940451;28;45459;-63
2022/12/06 15:06:34;;;;;;;0.45;0.40;;;24.90;41.40;;;;;;4958982;28;45466;-62
2022/12/06 15:08:59;;;;;;;0.38;0.30;;;24.90;40.90;;;;;;4902033;28;46257;-61
2022/12/06 15:14:21;;;;;;;0.70;0.50;;;25.00;41.30;;;;;;4932663;28;45124;-62
2022/12/06 15:17:09;;;;;;;0.60;0.60;;;25.00;41.20;;;;;;4952972;28;45206;-62
2022/12/06 15:19:48;;;;;;;3.17;0.60;;;25.00;40.90;;;;;;4942712;28;46001;-62
2022/12/06 15:22:21;;;;;;;0.35;0.35;;;25.00;41.10;;;;;;4953559;28;45211;-62
2022/12/06 15:24:49;;;;;;;0.60;0.40;;;25.00;41.20;;;;;;4944024;28;45180;-60
2022/12/06 15:27:19;;;;;;;0.50;0.50;;;25.00;41.20;;;;;;4945075;28;45252;-61
2022/12/06 15:29:44;;;;;;;0.85;0.50;;;25.00;41.30;;;;;;4939412;28;45427;-62
2022/12/06 15:32:13;;;;;;;0.45;0.40;;;24.90;41.20;;;;;;4946669;28;44636;-60
2022/12/06 15:34:39;;;;;;;3.92;0.50;;;24.90;41.20;;;;;;4944117;28;45509;-59
2022/12/06 15:37:04;;;;;;;1.08;0.50;;;24.90;41.30;;;;;;4957800;28;45164;-61
2022/12/06 15:39:30;;;;;;;0.60;0.40;;;24.80;41.40;;;;;;4948609;28;45608;-61
2022/12/06 15:41:56;;;;;;;1.63;0.60;;;24.80;41.30;;;;;;4957415;28;45158;-62
2022/12/06 15:44:24;;;;;;;0.70;0.65;;;24.80;41.40;;;;;;4960166;28;45284;-61
2022/12/06 15:46:50;;;;;;;1.00;0.47;;;24.80;41.40;;;;;;4958448;28;45222;-61
2022/12/06 15:49:17;;;;;;;0.52;0.52;;;24.80;41.40;;;;;;4939265;28;45940;-62
2022/12/06 15:51:42;;;;;;;0.93;0.30;;;24.90;41.40;;;;;;4923888;28;44723;-61
2022/12/06 15:54:16;;;;;;;2.95;0.50;;;24.90;41.40;;;;;;4966965;28;45286;-61
2022/12/06 15:56:42;;;;;;;0.52;0.50;;;24.90;41.30;;;;;;4960533;28;45360;-61
2022/12/06 15:59:07;;;;;;;1.13;0.50;;;25.00;41.30;;;;;;4946986;28;45936;-61
2022/12/06 16:01:34;;;;;;;0.63;0.52;;;25.00;41.20;;;;;;4943858;28;45471;-61
2022/12/06 16:04:00;;;;;;;0.30;0.30;;;25.10;41.20;;;;;;4966766;28;45488;-61
2022/12/06 16:06:26;;;;;;;0.55;0.40;;;25.00;41.10;;;;;;4961747;28;44738;-61
2022/12/06 16:08:52;;;;;;;0.40;0.40;;;25.00;41.10;;;;;;4962223;28;46018;-64
2022/12/06 16:11:19;;;;;;;0.50;0.40;;;24.80;41.20;;;;;;4925432;28;45515;-61
2022/12/06 16:13:45;;;;;;;0.95;0.43;;;24.70;41.40;;;;;;4936303;28;45712;-61
2022/12/06 16:16:10;;;;;;;0.60;0.43;;;24.50;41.50;;;;;;4948845;28;45259;-60
2022/12/06 16:18:36;;;;;;;0.55;0.55;;;24.40;41.80;;;;;;4940550;28;46297;-62
2022/12/06 16:21:02;;;;;;;0.40;0.40;;;24.30;41.90;;;;;;4939050;28;46798;-62
2022/12/06 16:26:12;;;;;;;0.82;0.60;;;24.10;42.30;;;;;;4956465;28;44708;-60
2022/12/06 16:28:38;;;;;;;0.65;0.30;;;24.00;42.40;;;;;;4941370;28;45833;-60
2022/12/06 16:31:04;;;;;;;0.70;0.70;;;23.80;42.50;;;;;;4956092;28;44719;-61
2022/12/06 16:33:30;;;;;;;0.73;0.47;;;23.70;42.70;;;;;;4940242;28;45535;-61
2022/12/06 16:36:01;;;;;;;0.50;0.43;;;23.70;42.80;;;;;;4960487;28;45196;-61
2022/12/06 16:38:27;;;;;;;0.57;0.52;;;23.60;42.80;;;;;;4948446;28;47321;-64
2022/12/06 16:40:53;;;;;;;0.47;0.47;;;23.50;42.90;;;;;;4944637;28;45521;-62
2022/12/06 16:43:18;;;;;;;0.73;0.50;;;23.40;43.00;;;;;;4939005;28;44936;-64
2022/12/06 16:45:44;;;;;;;0.40;0.40;;;23.30;43.10;;;;;;4940925;28;45603;-62
2022/12/06 16:48:15;;;;;;;0.50;0.50;;;23.30;43.20;;;;;;4951579;28;45143;-61
2022/12/06 16:50:41;;;;;;;0.40;0.40;;;23.20;43.30;;;;;;4932858;28;45137;-61
2022/12/06 16:53:06;;;;;;;1.20;0.43;;;23.10;43.40;;;;;;4950175;28;45633;-61
2022/12/06 16:55:32;;;;;;;0.50;0.50;;;23.10;43.50;;;;;;4942898;28;45163;-59
2022/12/06 16:57:57;;;;;;;1.38;0.80;;;23.00;43.60;;;;;;4952935;28;46202;-60
2022/12/06 17:00:23;;;;;;;0.93;0.60;;;22.80;43.60;;;;;;4952532;28;44707;-62
2022/12/06 17:02:48;;;;;;;0.50;0.50;;;22.80;43.80;;;;;;4952922;28;45360;-60
2022/12/06 17:05:19;;;;;;;0.60;0.57;;;22.70;43.90;;;;;;4955802;28;45338;-60
2022/12/06 17:07:45;;;;;;;1.10;0.50;;;22.60;43.90;;;;;;4936858;28;46493;-59
2022/12/06 17:10:11;;;;;;;1.05;0.65;;;22.50;44.00;;;;;;4934289;28;45891;-61
2022/12/06 17:12:38;;;;;;;0.47;0.43;;;22.50;44.10;;;;;;4933104;28;45416;-61
2022/12/06 17:15:05;;;;;;;0.50;0.50;;;22.50;44.20;;;;;;4953742;28;45641;-57
2022/12/06 17:17:30;;;;;;;0.85;0.70;;;22.30;44.20;;;;;;4934544;28;46933;-61
2022/12/06 17:19:56;;;;;;;0.50;0.50;;;22.30;44.40;;;;;;4950252;28;44842;-61
2022/12/06 17:22:22;;;;;;;0.55;0.40;;;22.20;44.40;;;;;;4951003;28;45520;-61
2022/12/06 17:24:47;;;;;;;0.43;0.43;;;22.20;44.60;;;;;;4936417;28;45029;-62
2022/12/06 17:27:14;;;;;;;0.63;0.57;;;22.10;44.60;;;;;;4950368;28;47188;-62
2022/12/06 17:29:40;;;;;;;0.50;0.50;;;22.00;44.70;;;;;;4939695;28;45782;-61
2022/12/06 17:32:05;;;;;;;0.95;0.75;;;21.90;44.80;;;;;;4934033;28;45401;-61
2022/12/06 17:34:31;;;;;;;0.50;0.50;;;21.80;44.90;;;;;;4955931;28;45339;-61
2022/12/06 17:36:57;;;;;;;0.73;0.60;;;21.80;45.00;;;;;;4955548;28;45591;-61
2022/12/06 17:39:23;;;;;;;0.60;0.52;;;21.70;45.10;;;;;;4952378;28;45241;-62
2022/12/06 17:44:33;;;;;;;1.00;0.60;;;21.60;45.20;;;;;;4950397;28;45502;-62
2022/12/06 17:46:59;;;;;;;0.88;0.50;;;21.60;45.30;;;;;;4961880;28;45158;-61
2022/12/06 17:49:25;;;;;;;0.90;0.68;;;21.50;45.30;;;;;;4933895;28;45526;-62
2022/12/06 17:51:50;;;;;;;0.68;0.63;;;21.40;45.40;;;;;;4932474;28;45300;-62
2022/12/06 17:54:16;;;;;;;0.95;0.52;;;21.40;45.50;;;;;;4951613;28;45841;-62
2022/12/06 17:56:43;;;;;;;0.77;0.60;;;21.40;45.60;;;;;;4943256;28;46233;-63
2022/12/06 17:59:13;;;;;;;0.45;0.45;;;21.30;45.60;;;;;;4941444;28;44739;-62
2022/12/06 18:01:39;;;;;;;0.73;0.70;;;21.20;45.70;;;;;;4920849;28;45401;-62